sensor_id;sensor_type;location;lat;lon;timestamp;P1;durP1;ratioP1;P2;durP2;ratioP2
40367;SDS011;26075;43.320;21.920;2023-03-24T00:02:43;60.95;;;39.65;;
40367;SDS011;26075;43.320;21.920;2023-03-24T00:07:45;54.88;;;34.00;;
40367;SDS011;26075;43.320;21.920;2023-03-24T00:12:47;37.90;;;25.38;;
40367;SDS011;26075;43.320;21.920;2023-03-24T00:17:48;32.58;;;21.27;;
40367;SDS011;26075;43.320;21.920;2023-03-24T00:22:50;28.67;;;19.05;;
40367;SDS011;26075;43.320;21.920;2023-03-24T00:27:55;26.00;;;18.02;;
40367;SDS011;26075;43.320;21.920;2023-03-24T00:32:56;25.50;;;16.75;;
40367;SDS011;26075;43.320;21.920;2023-03-24T00:38:00;25.15;;;16.73;;
40367;SDS011;26075;43.320;21.920;2023-03-24T00:43:01;24.63;;;16.17;;
40367;SDS011;26075;43.320;21.920;2023-03-24T00:48:02;33.35;;;22.20;;
40367;SDS011;26075;43.320;21.920;2023-03-24T00:53:04;33.75;;;22.80;;
40367;SDS011;26075;43.320;21.920;2023-03-24T00:58:05;30.10;;;20.63;;
40367;SDS011;26075;43.320;21.920;2023-03-24T01:03:07;27.63;;;19.67;;
40367;SDS011;26075;43.320;21.920;2023-03-24T01:08:08;29.88;;;19.95;;
40367;SDS011;26075;43.320;21.920;2023-03-24T01:13:09;30.05;;;20.23;;
40367;SDS011;26075;43.320;21.920;2023-03-24T01:18:11;32.65;;;21.08;;
40367;SDS011;26075;43.320;21.920;2023-03-24T01:23:14;27.92;;;19.70;;
40367;SDS011;26075;43.320;21.920;2023-03-24T01:28:17;33.55;;;21.17;;
40367;SDS011;26075;43.320;21.920;2023-03-24T01:33:22;33.50;;;23.17;;
40367;SDS011;26075;43.320;21.920;2023-03-24T01:38:23;36.33;;;24.02;;
40367;SDS011;26075;43.320;21.920;2023-03-24T01:43:25;32.45;;;23.92;;
40367;SDS011;26075;43.320;21.920;2023-03-24T01:48:52;44.33;;;27.58;;
40367;SDS011;26075;43.320;21.920;2023-03-24T01:58:56;40.97;;;25.85;;
40367;SDS011;26075;43.320;21.920;2023-03-24T02:03:59;46.17;;;26.35;;
40367;SDS011;26075;43.320;21.920;2023-03-24T02:09:02;41.20;;;26.05;;
40367;SDS011;26075;43.320;21.920;2023-03-24T02:14:04;40.20;;;24.13;;
40367;SDS011;26075;43.320;21.920;2023-03-24T02:24:38;33.90;;;22.80;;
40367;SDS011;26075;43.320;21.920;2023-03-24T02:29:48;24.13;;;16.35;;
40367;SDS011;26075;43.320;21.920;2023-03-24T02:40:42;22.35;;;15.90;;
40367;SDS011;26075;43.320;21.920;2023-03-24T02:50:48;19.73;;;15.30;;
40367;SDS011;26075;43.320;21.920;2023-03-24T02:55:58;19.20;;;14.17;;
40367;SDS011;26075;43.320;21.920;2023-03-24T03:01:43;21.45;;;14.30;;
40367;SDS011;26075;43.320;21.920;2023-03-24T03:06:31;20.23;;;14.40;;
40367;SDS011;26075;43.320;21.920;2023-03-24T03:11:36;21.70;;;15.35;;
40367;SDS011;26075;43.320;21.920;2023-03-24T03:16:50;23.05;;;16.15;;
40367;SDS011;26075;43.320;21.920;2023-03-24T03:21:53;25.57;;;16.93;;
40367;SDS011;26075;43.320;21.920;2023-03-24T03:27:00;23.55;;;16.15;;
40367;SDS011;26075;43.320;21.920;2023-03-24T03:32:02;24.23;;;16.95;;
40367;SDS011;26075;43.320;21.920;2023-03-24T03:42:48;21.02;;;13.85;;
40367;SDS011;26075;43.320;21.920;2023-03-24T03:47:50;19.58;;;13.80;;
40367;SDS011;26075;43.320;21.920;2023-03-24T03:52:51;22.23;;;13.43;;
40367;SDS011;26075;43.320;21.920;2023-03-24T03:57:53;19.38;;;12.70;;
40367;SDS011;26075;43.320;21.920;2023-03-24T04:08:03;17.73;;;12.20;;
40367;SDS011;26075;43.320;21.920;2023-03-24T04:24:18;25.42;;;13.70;;
40367;SDS011;26075;43.320;21.920;2023-03-24T04:34:31;21.95;;;12.93;;
40367;SDS011;26075;43.320;21.920;2023-03-24T04:39:34;27.27;;;13.05;;
40367;SDS011;26075;43.320;21.920;2023-03-24T04:44:37;19.98;;;13.65;;
40367;SDS011;26075;43.320;21.920;2023-03-24T04:49:40;23.00;;;13.68;;
40367;SDS011;26075;43.320;21.920;2023-03-24T04:54:41;24.52;;;14.75;;
40367;SDS011;26075;43.320;21.920;2023-03-24T04:59:42;23.95;;;16.20;;
40367;SDS011;26075;43.320;21.920;2023-03-24T05:04:43;25.38;;;17.40;;
40367;SDS011;26075;43.320;21.920;2023-03-24T05:09:45;26.42;;;17.08;;
40367;SDS011;26075;43.320;21.920;2023-03-24T05:14:46;22.33;;;15.15;;
40367;SDS011;26075;43.320;21.920;2023-03-24T05:19:47;28.83;;;14.25;;
40367;SDS011;26075;43.320;21.920;2023-03-24T05:24:48;30.45;;;15.50;;
40367;SDS011;26075;43.320;21.920;2023-03-24T05:29:49;30.75;;;17.63;;
40367;SDS011;26075;43.320;21.920;2023-03-24T05:34:50;24.60;;;16.67;;
40367;SDS011;26075;43.320;21.920;2023-03-24T05:39:51;31.58;;;19.33;;
40367;SDS011;26075;43.320;21.920;2023-03-24T05:44:52;26.77;;;18.27;;
40367;SDS011;26075;43.320;21.920;2023-03-24T05:49:53;27.33;;;18.00;;
40367;SDS011;26075;43.320;21.920;2023-03-24T05:54:54;37.05;;;21.55;;
40367;SDS011;26075;43.320;21.920;2023-03-24T05:59:56;30.13;;;20.75;;
40367;SDS011;26075;43.320;21.920;2023-03-24T06:04:57;38.97;;;23.35;;
40367;SDS011;26075;43.320;21.920;2023-03-24T06:09:58;28.95;;;20.30;;
40367;SDS011;26075;43.320;21.920;2023-03-24T06:15:02;17.73;;;11.13;;
40367;SDS011;26075;43.320;21.920;2023-03-24T06:20:04;34.70;;;20.38;;
40367;SDS011;26075;43.320;21.920;2023-03-24T06:25:13;28.92;;;21.70;;
40367;SDS011;26075;43.320;21.920;2023-03-24T06:30:16;30.17;;;20.40;;
40367;SDS011;26075;43.320;21.920;2023-03-24T06:35:17;30.48;;;19.55;;
40367;SDS011;26075;43.320;21.920;2023-03-24T06:40:18;25.08;;;17.48;;
40367;SDS011;26075;43.320;21.920;2023-03-24T06:45:19;23.98;;;16.52;;
40367;SDS011;26075;43.320;21.920;2023-03-24T06:50:21;21.80;;;16.25;;
40367;SDS011;26075;43.320;21.920;2023-03-24T06:55:25;24.57;;;15.90;;
40367;SDS011;26075;43.320;21.920;2023-03-24T07:00:26;30.20;;;16.85;;
40367;SDS011;26075;43.320;21.920;2023-03-24T07:05:28;26.52;;;18.10;;
40367;SDS011;26075;43.320;21.920;2023-03-24T07:10:29;27.13;;;18.80;;
40367;SDS011;26075;43.320;21.920;2023-03-24T07:15:30;26.27;;;18.35;;
40367;SDS011;26075;43.320;21.920;2023-03-24T07:20:31;25.35;;;17.05;;
40367;SDS011;26075;43.320;21.920;2023-03-24T07:25:32;26.08;;;17.30;;
40367;SDS011;26075;43.320;21.920;2023-03-24T07:30:34;26.27;;;18.25;;
40367;SDS011;26075;43.320;21.920;2023-03-24T07:35:35;22.30;;;16.63;;
40367;SDS011;26075;43.320;21.920;2023-03-24T07:40:36;23.55;;;15.32;;
40367;SDS011;26075;43.320;21.920;2023-03-24T07:45:37;28.52;;;15.05;;
40367;SDS011;26075;43.320;21.920;2023-03-24T07:50:38;27.63;;;15.50;;
40367;SDS011;26075;43.320;21.920;2023-03-24T07:55:40;26.30;;;16.70;;
40367;SDS011;26075;43.320;21.920;2023-03-24T08:00:41;21.88;;;15.07;;
40367;SDS011;26075;43.320;21.920;2023-03-24T08:05:42;21.85;;;15.23;;
40367;SDS011;26075;43.320;21.920;2023-03-24T08:10:43;25.58;;;16.05;;
40367;SDS011;26075;43.320;21.920;2023-03-24T08:15:45;21.17;;;13.85;;
40367;SDS011;26075;43.320;21.920;2023-03-24T08:20:47;20.13;;;14.02;;
40367;SDS011;26075;43.320;21.920;2023-03-24T08:25:48;18.48;;;13.38;;
40367;SDS011;26075;43.320;21.920;2023-03-24T08:30:50;21.30;;;12.63;;
40367;SDS011;26075;43.320;21.920;2023-03-24T08:35:51;15.95;;;12.38;;
40367;SDS011;26075;43.320;21.920;2023-03-24T08:41:00;21.77;;;13.35;;
40367;SDS011;26075;43.320;21.920;2023-03-24T08:46:01;20.45;;;13.38;;
40367;SDS011;26075;43.320;21.920;2023-03-24T08:51:10;18.92;;;13.73;;
40367;SDS011;26075;43.320;21.920;2023-03-24T08:56:11;11.68;;;7.93;;
40367;SDS011;26075;43.320;21.920;2023-03-24T09:01:12;13.63;;;9.38;;
40367;SDS011;26075;43.320;21.920;2023-03-24T09:06:13;14.27;;;9.23;;
40367;SDS011;26075;43.320;21.920;2023-03-24T09:11:15;15.85;;;9.32;;
40367;SDS011;26075;43.320;21.920;2023-03-24T09:16:17;12.88;;;8.73;;
40367;SDS011;26075;43.320;21.920;2023-03-24T09:21:18;15.68;;;9.82;;
40367;SDS011;26075;43.320;21.920;2023-03-24T09:26:20;12.80;;;9.07;;
40367;SDS011;26075;43.320;21.920;2023-03-24T09:31:22;12.73;;;8.07;;
40367;SDS011;26075;43.320;21.920;2023-03-24T09:36:23;11.10;;;8.73;;
40367;SDS011;26075;43.320;21.920;2023-03-24T09:41:28;15.65;;;8.55;;
40367;SDS011;26075;43.320;21.920;2023-03-24T09:51:42;10.52;;;8.38;;
40367;SDS011;26075;43.320;21.920;2023-03-24T09:56:45;13.83;;;8.83;;
40367;SDS011;26075;43.320;21.920;2023-03-24T10:01:46;10.73;;;7.75;;
40367;SDS011;26075;43.320;21.920;2023-03-24T10:06:49;16.10;;;8.80;;
40367;SDS011;26075;43.320;21.920;2023-03-24T10:17:12;14.32;;;9.77;;
40367;SDS011;26075;43.320;21.920;2023-03-24T10:22:20;11.88;;;9.82;;
40367;SDS011;26075;43.320;21.920;2023-03-24T10:27:24;16.75;;;10.82;;
40367;SDS011;26075;43.320;21.920;2023-03-24T10:32:28;18.00;;;10.45;;
40367;SDS011;26075;43.320;21.920;2023-03-24T10:37:30;12.82;;;9.38;;
40367;SDS011;26075;43.320;21.920;2023-03-24T10:42:32;13.50;;;9.27;;
40367;SDS011;26075;43.320;21.920;2023-03-24T10:47:34;18.10;;;10.10;;
40367;SDS011;26075;43.320;21.920;2023-03-24T10:52:39;16.20;;;9.45;;
40367;SDS011;26075;43.320;21.920;2023-03-24T10:57:41;17.20;;;9.20;;
40367;SDS011;26075;43.320;21.920;2023-03-24T11:02:43;14.55;;;8.70;;
40367;SDS011;26075;43.320;21.920;2023-03-24T11:07:45;13.73;;;8.70;;
40367;SDS011;26075;43.320;21.920;2023-03-24T11:17:54;14.00;;;8.70;;
40367;SDS011;26075;43.320;21.920;2023-03-24T11:22:57;20.38;;;8.38;;
40367;SDS011;26075;43.320;21.920;2023-03-24T11:28:00;18.42;;;7.90;;
40367;SDS011;26075;43.320;21.920;2023-03-24T11:33:02;11.20;;;6.68;;
40367;SDS011;26075;43.320;21.920;2023-03-24T11:38:04;10.38;;;6.30;;
40367;SDS011;26075;43.320;21.920;2023-03-24T11:43:10;9.60;;;6.43;;
40367;SDS011;26075;43.320;21.920;2023-03-24T11:53:24;11.40;;;6.60;;
40367;SDS011;26075;43.320;21.920;2023-03-24T12:09:29;9.20;;;5.10;;
40367;SDS011;26075;43.320;21.920;2023-03-24T12:14:39;10.10;;;5.20;;
40367;SDS011;26075;43.320;21.920;2023-03-24T12:19:54;8.15;;;4.20;;
40367;SDS011;26075;43.320;21.920;2023-03-24T12:30:35;7.80;;;3.90;;
40367;SDS011;26075;43.320;21.920;2023-03-24T12:35:44;9.73;;;3.50;;
40367;SDS011;26075;43.320;21.920;2023-03-24T12:45:51;7.93;;;2.88;;
40367;SDS011;26075;43.320;21.920;2023-03-24T12:50:57;9.20;;;3.95;;
40367;SDS011;26075;43.320;21.920;2023-03-24T12:56:07;5.53;;;2.78;;
40367;SDS011;26075;43.320;21.920;2023-03-24T13:01:12;5.72;;;2.33;;
40367;SDS011;26075;43.320;21.920;2023-03-24T13:06:18;5.45;;;2.67;;
40367;SDS011;26075;43.320;21.920;2023-03-24T13:11:20;5.57;;;2.83;;
40367;SDS011;26075;43.320;21.920;2023-03-24T13:16:27;6.18;;;3.08;;
40367;SDS011;26075;43.320;21.920;2023-03-24T13:21:28;5.03;;;2.72;;
40367;SDS011;26075;43.320;21.920;2023-03-24T13:31:43;7.45;;;2.92;;
40367;SDS011;26075;43.320;21.920;2023-03-24T13:36:46;5.50;;;2.95;;
40367;SDS011;26075;43.320;21.920;2023-03-24T13:41:49;8.23;;;3.33;;
40367;SDS011;26075;43.320;21.920;2023-03-24T13:47:04;8.75;;;3.58;;
40367;SDS011;26075;43.320;21.920;2023-03-24T13:52:19;8.02;;;2.75;;
40367;SDS011;26075;43.320;21.920;2023-03-24T13:57:27;4.72;;;2.83;;
40367;SDS011;26075;43.320;21.920;2023-03-24T14:12:34;5.68;;;3.38;;
40367;SDS011;26075;43.320;21.920;2023-03-24T14:17:55;11.15;;;3.75;;
40367;SDS011;26075;43.320;21.920;2023-03-24T14:23:18;7.03;;;3.70;;
40367;SDS011;26075;43.320;21.920;2023-03-24T14:33:23;5.38;;;3.00;;
40367;SDS011;26075;43.320;21.920;2023-03-24T14:38:25;7.07;;;3.22;;
40367;SDS011;26075;43.320;21.920;2023-03-24T14:43:27;9.27;;;3.15;;
40367;SDS011;26075;43.320;21.920;2023-03-24T14:58:36;12.15;;;3.08;;
40367;SDS011;26075;43.320;21.920;2023-03-24T15:03:46;11.70;;;3.80;;
40367;SDS011;26075;43.320;21.920;2023-03-24T15:13:53;6.15;;;3.90;;
40367;SDS011;26075;43.320;21.920;2023-03-24T15:18:57;10.18;;;4.25;;
40367;SDS011;26075;43.320;21.920;2023-03-24T15:23:58;7.20;;;3.85;;
40367;SDS011;26075;43.320;21.920;2023-03-24T15:29:01;7.38;;;3.20;;
40367;SDS011;26075;43.320;21.920;2023-03-24T15:39:33;8.77;;;4.53;;
40367;SDS011;26075;43.320;21.920;2023-03-24T15:44:36;5.95;;;3.78;;
40367;SDS011;26075;43.320;21.920;2023-03-24T15:49:44;5.45;;;3.45;;
40367;SDS011;26075;43.320;21.920;2023-03-24T15:54:50;5.85;;;3.00;;
40367;SDS011;26075;43.320;21.920;2023-03-24T16:00:04;4.68;;;2.92;;
40367;SDS011;26075;43.320;21.920;2023-03-24T16:10:35;5.50;;;2.80;;
40367;SDS011;26075;43.320;21.920;2023-03-24T16:15:40;10.65;;;4.65;;
40367;SDS011;26075;43.320;21.920;2023-03-24T16:20:43;14.48;;;5.38;;
40367;SDS011;26075;43.320;21.920;2023-03-24T16:25:44;15.52;;;5.45;;
40367;SDS011;26075;43.320;21.920;2023-03-24T16:36:05;15.10;;;9.13;;
40367;SDS011;26075;43.320;21.920;2023-03-24T16:41:07;36.50;;;15.15;;
40367;SDS011;26075;43.320;21.920;2023-03-24T16:46:17;42.55;;;17.75;;
40367;SDS011;26075;43.320;21.920;2023-03-24T16:51:30;30.17;;;19.90;;
40367;SDS011;26075;43.320;21.920;2023-03-24T16:56:31;27.48;;;19.65;;
40367;SDS011;26075;43.320;21.920;2023-03-24T17:01:36;43.67;;;22.08;;
40367;SDS011;26075;43.320;21.920;2023-03-24T17:06:39;31.88;;;19.73;;
40367;SDS011;26075;43.320;21.920;2023-03-24T17:11:42;14.40;;;6.63;;
40367;SDS011;26075;43.320;21.920;2023-03-24T17:16:45;18.85;;;6.80;;
40367;SDS011;26075;43.320;21.920;2023-03-24T17:21:54;15.15;;;8.82;;
40367;SDS011;26075;43.320;21.920;2023-03-24T17:26:56;18.52;;;11.00;;
40367;SDS011;26075;43.320;21.920;2023-03-24T17:31:57;23.48;;;12.27;;
40367;SDS011;26075;43.320;21.920;2023-03-24T17:36:58;27.17;;;11.48;;
40367;SDS011;26075;43.320;21.920;2023-03-24T17:41:59;26.60;;;14.68;;
40367;SDS011;26075;43.320;21.920;2023-03-24T17:47:01;26.80;;;17.88;;
40367;SDS011;26075;43.320;21.920;2023-03-24T17:52:02;29.80;;;20.05;;
40367;SDS011;26075;43.320;21.920;2023-03-24T17:57:03;30.85;;;22.42;;
40367;SDS011;26075;43.320;21.920;2023-03-24T18:02:04;36.97;;;23.00;;
40367;SDS011;26075;43.320;21.920;2023-03-24T18:07:05;33.35;;;23.63;;
40367;SDS011;26075;43.320;21.920;2023-03-24T18:12:06;34.85;;;22.63;;
40367;SDS011;26075;43.320;21.920;2023-03-24T18:17:07;39.47;;;22.95;;
40367;SDS011;26075;43.320;21.920;2023-03-24T18:22:09;33.08;;;22.80;;
40367;SDS011;26075;43.320;21.920;2023-03-24T18:27:10;33.28;;;22.15;;
40367;SDS011;26075;43.320;21.920;2023-03-24T18:32:10;45.92;;;23.13;;
40367;SDS011;26075;43.320;21.920;2023-03-24T18:37:12;32.25;;;21.88;;
40367;SDS011;26075;43.320;21.920;2023-03-24T18:42:14;40.20;;;20.80;;
40367;SDS011;26075;43.320;21.920;2023-03-24T18:47:15;38.05;;;22.90;;
40367;SDS011;26075;43.320;21.920;2023-03-24T18:52:16;34.33;;;21.13;;
40367;SDS011;26075;43.320;21.920;2023-03-24T18:57:17;32.78;;;20.13;;
40367;SDS011;26075;43.320;21.920;2023-03-24T19:02:20;26.73;;;18.48;;
40367;SDS011;26075;43.320;21.920;2023-03-24T19:07:21;29.48;;;18.90;;
40367;SDS011;26075;43.320;21.920;2023-03-24T19:12:25;25.23;;;17.13;;
40367;SDS011;26075;43.320;21.920;2023-03-24T19:17:26;25.42;;;16.90;;
40367;SDS011;26075;43.320;21.920;2023-03-24T19:22:27;28.23;;;18.90;;
40367;SDS011;26075;43.320;21.920;2023-03-24T19:27:28;30.48;;;21.10;;
40367;SDS011;26075;43.320;21.920;2023-03-24T19:32:29;31.67;;;22.60;;
40367;SDS011;26075;43.320;21.920;2023-03-24T19:37:31;30.38;;;21.73;;
40367;SDS011;26075;43.320;21.920;2023-03-24T19:42:32;36.13;;;22.65;;
40367;SDS011;26075;43.320;21.920;2023-03-24T19:47:33;33.75;;;23.15;;
40367;SDS011;26075;43.320;21.920;2023-03-24T19:52:34;35.55;;;23.35;;
40367;SDS011;26075;43.320;21.920;2023-03-24T19:57:35;37.25;;;25.42;;
40367;SDS011;26075;43.320;21.920;2023-03-24T20:02:36;41.25;;;27.52;;
40367;SDS011;26075;43.320;21.920;2023-03-24T20:07:37;49.03;;;29.67;;
40367;SDS011;26075;43.320;21.920;2023-03-24T20:12:38;36.97;;;27.00;;
40367;SDS011;26075;43.320;21.920;2023-03-24T20:17:40;36.45;;;26.08;;
40367;SDS011;26075;43.320;21.920;2023-03-24T20:22:41;32.10;;;22.38;;
40367;SDS011;26075;43.320;21.920;2023-03-24T20:27:44;29.85;;;21.30;;
40367;SDS011;26075;43.320;21.920;2023-03-24T20:32:46;31.85;;;19.75;;
40367;SDS011;26075;43.320;21.920;2023-03-24T20:37:48;26.42;;;17.48;;
40367;SDS011;26075;43.320;21.920;2023-03-24T20:42:48;26.00;;;16.83;;
40367;SDS011;26075;43.320;21.920;2023-03-24T20:47:50;26.27;;;16.83;;
40367;SDS011;26075;43.320;21.920;2023-03-24T20:52:51;29.77;;;19.20;;
40367;SDS011;26075;43.320;21.920;2023-03-24T20:57:52;28.10;;;18.30;;
40367;SDS011;26075;43.320;21.920;2023-03-24T21:02:54;28.40;;;18.90;;
40367;SDS011;26075;43.320;21.920;2023-03-24T21:07:55;32.60;;;20.48;;
40367;SDS011;26075;43.320;21.920;2023-03-24T21:12:57;34.08;;;21.42;;
40367;SDS011;26075;43.320;21.920;2023-03-24T21:17:58;40.78;;;24.17;;
40367;SDS011;26075;43.320;21.920;2023-03-24T21:22:59;37.30;;;24.92;;
40367;SDS011;26075;43.320;21.920;2023-03-24T21:28:02;43.20;;;26.60;;
40367;SDS011;26075;43.320;21.920;2023-03-24T21:33:03;48.95;;;28.25;;
40367;SDS011;26075;43.320;21.920;2023-03-24T21:38:04;45.38;;;29.23;;
40367;SDS011;26075;43.320;21.920;2023-03-24T21:43:08;45.20;;;28.25;;
40367;SDS011;26075;43.320;21.920;2023-03-24T21:48:09;45.30;;;30.20;;
40367;SDS011;26075;43.320;21.920;2023-03-24T21:53:12;49.08;;;30.88;;
40367;SDS011;26075;43.320;21.920;2023-03-24T21:58:14;52.38;;;32.67;;
40367;SDS011;26075;43.320;21.920;2023-03-24T22:03:15;49.22;;;33.67;;
40367;SDS011;26075;43.320;21.920;2023-03-24T22:08:16;66.57;;;41.70;;
40367;SDS011;26075;43.320;21.920;2023-03-24T22:13:21;73.60;;;41.47;;
40367;SDS011;26075;43.320;21.920;2023-03-24T22:18:23;60.83;;;40.13;;
40367;SDS011;26075;43.320;21.920;2023-03-24T22:23:25;62.22;;;38.72;;
40367;SDS011;26075;43.320;21.920;2023-03-24T22:28:32;58.15;;;36.67;;
40367;SDS011;26075;43.320;21.920;2023-03-24T22:33:34;56.05;;;37.88;;
40367;SDS011;26075;43.320;21.920;2023-03-24T22:38:35;72.65;;;41.40;;
40367;SDS011;26075;43.320;21.920;2023-03-24T22:43:36;61.40;;;38.38;;
40367;SDS011;26075;43.320;21.920;2023-03-24T22:48:40;54.60;;;34.60;;
40367;SDS011;26075;43.320;21.920;2023-03-24T22:53:41;54.80;;;38.42;;
40367;SDS011;26075;43.320;21.920;2023-03-24T22:58:42;59.50;;;37.78;;
40367;SDS011;26075;43.320;21.920;2023-03-24T23:03:43;56.00;;;35.63;;
40367;SDS011;26075;43.320;21.920;2023-03-24T23:08:44;65.28;;;40.15;;
40367;SDS011;26075;43.320;21.920;2023-03-24T23:13:46;61.85;;;38.45;;
40367;SDS011;26075;43.320;21.920;2023-03-24T23:18:51;57.03;;;37.03;;
40367;SDS011;26075;43.320;21.920;2023-03-24T23:23:52;59.40;;;39.03;;
40367;SDS011;26075;43.320;21.920;2023-03-24T23:28:53;68.50;;;42.13;;
40367;SDS011;26075;43.320;21.920;2023-03-24T23:33:55;73.20;;;44.00;;
40367;SDS011;26075;43.320;21.920;2023-03-24T23:38:56;58.45;;;37.50;;
40367;SDS011;26075;43.320;21.920;2023-03-24T23:43:57;49.72;;;30.00;;
40367;SDS011;26075;43.320;21.920;2023-03-24T23:48:59;41.97;;;27.70;;
40367;SDS011;26075;43.320;21.920;2023-03-24T23:54:00;55.95;;;28.65;;
40367;SDS011;26075;43.320;21.920;2023-03-24T23:59:02;48.85;;;31.63;;
